Time;durP1;ratioP1;P1;durP2;ratioP2;P2;SDS_P1;SDS_P2;PMS_P1;PMS_P2;Temp;Humidity;BMP_temperature;BMP_pressure;BME280_temperature;BME280_humidity;BME280_pressure;Samples;Min_cycle;Max_cycle;Signal;HPM_P1;HPM_P2
2023/03/28 00:00:25;;;;;;;;;;;;;;;4.83;67.32;100938.69;4973353;28;5060;-78
2023/03/28 00:02:52;;;;;;;;;;;;;;;4.81;67.50;100937.19;4983634;28;4940;-81
2023/03/28 00:05:22;;;;;;;;;;;;;;;4.80;67.46;100936.34;4991882;28;5052;-80
2023/03/28 00:07:49;;;;;;;;;;;;;;;4.80;67.34;100941.69;4982295;28;4698;-80
2023/03/28 00:10:16;;;;;;;;;;;;;;;4.79;67.43;100948.00;4957373;28;4842;-80
2023/03/28 00:12:42;;;;;;;;;;;;;;;4.78;67.14;100955.19;4979197;28;4916;-80
2023/03/28 00:15:09;;;;;;;;;;;;;;;4.78;67.31;100957.03;4972398;28;4872;-79
2023/03/28 00:17:35;;;;;;;;;;;;;;;4.77;67.65;100958.88;4974149;28;4626;-80
2023/03/28 00:20:03;;;;;;;;;;;;;;;4.76;67.62;100951.88;4957924;28;4578;-81
2023/03/28 00:22:30;;;;;;;;;;;;;;;4.77;67.47;100961.53;4975128;28;4681;-80
2023/03/28 00:24:57;;;;;;;;;;;;;;;4.75;67.43;100952.88;4956727;28;4847;-82
2023/03/28 00:27:24;;;;;;;;;;;;;;;4.74;67.62;100963.72;4960908;28;4892;-80
2023/03/28 00:29:50;;;;;;;;;;;;;;;4.72;67.50;100963.06;4970338;28;4968;-81
2023/03/28 00:32:17;;;;;;;;;;;;;;;4.72;67.32;100963.88;4956198;28;4786;-80
2023/03/28 00:34:43;;;;;;;;;;;;;;;4.72;67.36;100963.88;4966293;28;4846;-79
2023/03/28 00:37:16;;;;;;;;;;;;;;;4.74;67.41;100971.72;4969976;28;4724;-80
2023/03/28 00:39:42;;;;;;;;;;;;;;;4.73;67.31;100964.72;4959332;28;5298;-79
2023/03/28 00:42:09;;;;;;;;;;;;;;;4.75;67.27;100973.38;4976286;28;4088;-80
2023/03/28 00:44:35;;;;;;;;;;;;;;;4.72;67.28;100971.88;4988424;28;4542;-79
2023/03/28 00:47:02;;;;;;;;;;;;;;;4.73;67.07;100981.56;4972315;28;4730;-81
2023/03/28 00:49:28;;;;;;;;;;;;;;;4.72;67.36;100971.88;4989369;28;4984;-80
2023/03/28 00:51:55;;;;;;;;;;;;;;;4.71;66.97;100972.06;4974625;28;5217;-81
2023/03/28 00:54:22;;;;;;;;;;;;;;;4.72;67.19;100969.22;4989277;28;4687;-81
2023/03/28 00:56:49;;;;;;;;;;;;;;;4.73;67.13;100965.53;4976527;28;4068;-80
2023/03/28 00:59:16;;;;;;;;;;;;;;;4.72;67.04;100966.56;4977283;28;4981;-80
2023/03/28 01:01:42;;;;;;;;;;;;;;;4.72;67.30;100976.41;4977790;28;4372;-81
2023/03/28 01:04:09;;;;;;;;;;;;;;;4.70;67.41;100975.72;4975769;28;4808;-80
2023/03/28 01:06:36;;;;;;;;;;;;;;;4.71;67.05;100972.91;4957834;28;4134;-81
2023/03/28 01:09:03;;;;;;;;;;;;;;;4.70;67.13;100979.22;4962116;28;4569;-80
2023/03/28 01:11:29;;;;;;;;;;;;;;;4.72;67.01;100979.06;4957931;28;4740;-80
2023/03/28 01:13:56;;;;;;;;;;;;;;;4.70;66.83;100986.41;4959786;28;4641;-80
2023/03/28 01:16:23;;;;;;;;;;;;;;;4.71;67.03;100977.41;4976835;28;4799;-80
2023/03/28 01:18:50;;;;;;;;;;;;;;;4.69;67.00;100982.91;4974817;28;4591;-80
2023/03/28 01:21:17;;;;;;;;;;;;;;;4.78;66.72;100978.38;4974763;28;4721;-80
2023/03/28 01:23:43;;;;;;;;;;;;;;;4.80;66.68;100978.22;4956407;28;4875;-80
2023/03/28 01:26:10;;;;;;;;;;;;;;;4.76;66.68;100983.91;4975029;28;4420;-81
2023/03/28 01:28:37;;;;;;;;;;;;;;;4.70;66.87;100987.22;4974605;28;4085;-82
2023/03/28 01:31:04;;;;;;;;;;;;;;;4.68;66.87;100994.59;4975539;28;4613;-80
2023/03/28 01:33:30;;;;;;;;;;;;;;;4.69;66.91;100979.41;4973430;28;4086;-81
2023/03/28 01:35:57;;;;;;;;;;;;;;;4.69;66.59;100977.56;4977733;28;3992;-81
2023/03/28 01:38:23;;;;;;;;;;;;;;;4.68;67.01;100981.25;4976309;28;4349;-83
2023/03/28 01:40:50;;;;;;;;;;;;;;;4.71;66.73;100974.75;4960529;28;4425;-81
2023/03/28 01:43:17;;;;;;;;;;;;;;;4.70;66.73;100979.22;4973036;28;4781;-81
2023/03/28 01:45:43;;;;;;;;;;;;;;;4.70;66.74;100986.41;4955040;28;3944;-81
2023/03/28 01:48:10;;;;;;;;;;;;;;;4.74;66.56;100977.91;4973508;28;4957;-79
2023/03/28 01:50:36;;;;;;;;;;;;;;;4.71;66.67;100977.41;4959022;28;4956;-80
2023/03/28 01:53:03;;;;;;;;;;;;;;;4.71;66.71;100978.25;4968821;28;4691;-81
2023/03/28 01:55:30;;;;;;;;;;;;;;;4.75;66.53;100979.56;4956554;28;4919;-80
2023/03/28 01:57:57;;;;;;;;;;;;;;;4.68;66.49;100975.09;4986393;28;4735;-81
2023/03/28 02:00:23;;;;;;;;;;;;;;;4.73;66.47;100978.06;4965632;28;4922;-81
2023/03/28 02:02:50;;;;;;;;;;;;;;;4.71;66.29;100980.09;4969288;28;4988;-82
2023/03/28 02:05:18;;;;;;;;;;;;;;;4.72;66.64;100977.22;4973443;28;4033;-81
2023/03/28 02:07:44;;;;;;;;;;;;;;;4.70;66.59;100976.56;4970224;28;4866;-80
2023/03/28 02:10:11;;;;;;;;;;;;;;;4.67;66.60;100979.56;4975959;28;3979;-81
2023/03/28 02:12:37;;;;;;;;;;;;;;;4.75;66.22;100974.22;4973013;28;5095;-80
2023/03/28 02:15:04;;;;;;;;;;;;;;;4.69;66.64;100976.75;4957604;28;4574;-80
2023/03/28 02:17:31;;;;;;;;;;;;;;;4.76;66.14;100978.56;4954545;28;4964;-82
2023/03/28 02:19:58;;;;;;;;;;;;;;;4.69;66.52;100977.56;4971496;28;5020;-80
2023/03/28 02:22:25;;;;;;;;;;;;;;;4.68;66.40;100975.91;4955901;28;4916;-80
2023/03/28 02:24:52;;;;;;;;;;;;;;;4.68;66.46;100965.25;4968575;28;5112;-80
2023/03/28 02:27:19;;;;;;;;;;;;;;;4.72;66.00;100971.88;4977171;28;3984;-78
2023/03/28 02:29:46;;;;;;;;;;;;;;;4.76;66.00;100973.22;4956817;28;3680;-82
2023/03/28 02:32:13;;;;;;;;;;;;;;;4.71;66.19;100972.06;4974554;28;5246;-80
2023/03/28 02:34:40;;;;;;;;;;;;;;;4.70;66.24;100973.88;4968486;28;4807;-81
2023/03/28 02:37:06;;;;;;;;;;;;;;;4.71;66.19;100972.06;4969427;28;4839;-80
2023/03/28 02:39:33;;;;;;;;;;;;;;;4.67;66.20;100973.41;4972306;28;4612;-80
2023/03/28 02:41:59;;;;;;;;;;;;;;;4.70;66.07;100975.72;4970869;28;4579;-82
2023/03/28 02:44:26;;;;;;;;;;;;;;;4.68;66.28;100975.91;4953680;28;4807;-80
2023/03/28 02:46:53;;;;;;;;;;;;;;;4.68;66.28;100975.91;4975468;28;4535;-81
2023/03/28 02:49:20;;;;;;;;;;;;;;;4.67;66.27;100979.56;4971936;28;4188;-80
2023/03/28 02:51:47;;;;;;;;;;;;;;;4.67;66.30;100982.22;4957098;28;3903;-80
2023/03/28 02:54:13;;;;;;;;;;;;;;;4.66;66.21;100980.59;4960118;28;3869;-80
2023/03/28 02:56:40;;;;;;;;;;;;;;;4.68;66.19;100980.44;4972720;28;4839;-81
2023/03/28 02:59:07;;;;;;;;;;;;;;;4.68;66.11;100981.25;4973765;28;4599;-82
2023/03/28 03:01:35;;;;;;;;;;;;;;;4.67;66.15;100984.91;4964565;28;4671;-80
2023/03/28 03:04:02;;;;;;;;;;;;;;;4.66;66.13;100988.59;4987234;28;4749;-79
2023/03/28 03:06:28;;;;;;;;;;;;;;;4.68;66.14;100989.25;4990423;28;4830;-80
2023/03/28 03:08:55;;;;;;;;;;;;;;;4.69;66.15;100987.41;4988410;28;4854;-80
2023/03/28 03:11:21;;;;;;;;;;;;;;;4.71;65.89;100990.75;4963136;28;4616;-80
2023/03/28 03:13:48;;;;;;;;;;;;;;;4.69;66.08;100990.09;4963217;28;3643;-79
2023/03/28 03:16:14;;;;;;;;;;;;;;;4.69;65.98;100984.75;4976856;28;4914;-80
2023/03/28 03:18:41;;;;;;;;;;;;;;;4.62;66.14;100986.41;4971850;28;4885;-79
2023/03/28 03:21:08;;;;;;;;;;;;;;;4.67;65.95;100979.56;4975190;28;3922;-82
2023/03/28 03:23:35;;;;;;;;;;;;;;;4.70;65.78;100981.88;4962659;28;3912;-80
2023/03/28 03:26:02;;;;;;;;;;;;;;;4.67;65.96;100987.56;4974206;28;4559;-79
2023/03/28 03:28:28;;;;;;;;;;;;;;;4.74;65.71;100991.25;4977777;28;4938;-81
2023/03/28 03:30:55;;;;;;;;;;;;;;;4.70;65.95;100989.06;4974882;28;3880;-80
2023/03/28 03:33:22;;;;;;;;;;;;;;;4.71;65.80;100988.91;4976187;28;4966;-80
2023/03/28 03:35:48;;;;;;;;;;;;;;;4.69;65.65;100995.41;4930332;28;1460041;-82
2023/03/28 03:38:15;;;;;;;;;;;;;;;4.68;65.79;100993.75;4961050;28;4632;-83
2023/03/28 03:40:42;;;;;;;;;;;;;;;4.68;65.86;101002.59;4976862;28;4449;-81
2023/03/28 03:43:08;;;;;;;;;;;;;;;4.74;65.56;100998.41;4980708;28;4382;-79
2023/03/28 03:45:36;;;;;;;;;;;;;;;4.66;65.81;100995.75;4976343;28;4799;-80
2023/03/28 03:48:03;;;;;;;;;;;;;;;4.66;65.85;100995.75;4977356;28;4733;-78
2023/03/28 03:50:29;;;;;;;;;;;;;;;4.69;65.75;101000.75;4962613;28;4391;-81
2023/03/28 03:52:56;;;;;;;;;;;;;;;4.71;65.46;100996.09;4984797;28;4806;-80
2023/03/28 03:55:25;;;;;;;;;;;;;;;4.65;65.74;100996.78;4977995;28;4459;-81
2023/03/28 03:57:52;;;;;;;;;;;;;;;4.66;65.81;100995.75;4978224;28;4984;-78
2023/03/28 04:00:18;;;;;;;;;;;;;;;4.69;65.59;101001.59;4980283;28;4716;-80
2023/03/28 04:02:45;;;;;;;;;;;;;;;4.68;65.68;100997.25;4977626;28;4543;-80
2023/03/28 04:05:12;;;;;;;;;;;;;;;4.70;65.46;100992.56;4979223;28;4342;-80
2023/03/28 04:07:38;;;;;;;;;;;;;;;4.66;65.58;100995.75;4974266;28;4648;-80
2023/03/28 04:10:05;;;;;;;;;;;;;;;4.69;65.45;100998.91;4973288;28;4885;-80
2023/03/28 04:12:31;;;;;;;;;;;;;;;4.68;65.55;101001.78;4980617;28;4346;-79
2023/03/28 04:15:24;;;;;;;;;;;;;;;4.69;65.45;101001.59;4987169;28;4643;-80
2023/03/28 04:18:16;;;;;;;;;;;;;;;4.70;65.67;101007.75;4977002;28;4251;-79
2023/03/28 04:21:08;;;;;;;;;;;;;;;4.65;65.37;101002.94;4977199;28;4370;-78
2023/03/28 04:24:00;;;;;;;;;;;;;;;4.66;65.54;101009.09;4979880;28;3430;-80
2023/03/28 04:26:54;;;;;;;;;;;;;;;4.68;65.37;101009.78;4977894;28;4532;-79
2023/03/28 04:29:46;;;;;;;;;;;;;;;4.63;65.39;101012.94;4976802;28;4777;-79
2023/03/28 04:32:39;;;;;;;;;;;;;;;4.65;65.47;101008.28;4978264;28;3787;-81
2023/03/28 04:35:34;;;;;;;;;;;;;;;4.68;65.34;101015.13;4972708;28;4714;-80
2023/03/28 04:38:26;;;;;;;;;;;;;;;4.63;65.44;101020.13;4976990;28;3624;-81
2023/03/28 04:41:18;;;;;;;;;;;;;;;4.62;65.62;101024.63;4975838;28;4620;-80
2023/03/28 04:44:10;;;;;;;;;;;;;;;4.75;65.19;101024.91;4979464;28;3732;-81
2023/03/28 04:47:02;;;;;;;;;;;;;;;4.66;65.35;101017.09;4974419;28;3952;-79
2023/03/28 04:49:28;;;;;;;;;;;;;;;4.68;65.41;101015.13;4977277;28;3718;-80
2023/03/28 04:51:55;;;;;;;;;;;;;;;4.64;65.15;101027.09;4976061;28;4552;-81
2023/03/28 04:54:46;;;;;;;;;;;;;;;4.73;65.07;101024.25;4978354;28;4201;-80
2023/03/28 04:57:39;;;;;;;;;;;;;;;4.73;65.08;101024.25;4972653;28;4638;-82
2023/03/28 05:00:31;;;;;;;;;;;;;;;4.67;65.28;101021.44;4978669;28;4579;-78
2023/03/28 05:03:23;;;;;;;;;;;;;;;4.65;65.25;101026.94;4988590;28;4657;-80
2023/03/28 05:06:15;;;;;;;;;;;;;;;4.63;65.52;101026.28;4986640;28;4774;-79
2023/03/28 05:09:06;;;;;;;;;;;;;;;4.63;65.15;101028.94;4990398;28;4709;-79
2023/03/28 05:11:58;;;;;;;;;;;;;;;4.63;65.21;101036.13;4989858;28;4796;-77
2023/03/28 05:14:50;;;;;;;;;;;;;;;4.72;65.08;101033.25;4990282;28;4946;-80
2023/03/28 05:17:42;;;;;;;;;;;;;;;4.65;65.13;101031.47;4988294;28;3926;-80
2023/03/28 05:20:34;;;;;;;;;;;;;;;4.64;65.28;101032.44;4987737;28;3803;-80
2023/03/28 05:23:26;;;;;;;;;;;;;;;4.69;65.09;101035.44;4988168;28;4513;-80
2023/03/28 05:26:18;;;;;;;;;;;;;;;4.70;64.81;101029.09;4991521;28;4520;-79
2023/03/28 05:29:10;;;;;;;;;;;;;;;4.57;65.20;101026.13;4991661;28;4690;-80
2023/03/28 05:32:02;;;;;;;;;;;;;;;4.62;65.01;101031.78;4987939;28;4755;-78
2023/03/28 05:34:54;;;;;;;;;;;;;;;4.61;65.13;101043.44;4989803;28;5078;-80
2023/03/28 05:37:46;;;;;;;;;;;;;;;4.55;65.35;101037.78;4949964;28;5079;-79
2023/03/28 05:40:38;;;;;;;;;;;;;;;4.67;64.89;101034.78;4952606;28;5076;-80
2023/03/28 05:43:30;;;;;;;;;;;;;;;4.68;64.77;101029.28;4950672;28;3697;-80
2023/03/28 05:46:22;;;;;;;;;;;;;;;4.61;65.14;101032.78;4948662;28;4939;-80
2023/03/28 05:49:14;;;;;;;;;;;;;;;4.61;65.10;101024.78;4943086;28;3858;-86
2023/03/28 05:52:06;;;;;;;;;;;;;;;4.61;65.17;101020.28;4944205;28;4734;-81
2023/03/28 05:54:58;;;;;;;;;;;;;;;4.65;64.97;101023.47;4948012;28;4760;-80
2023/03/28 05:57:50;;;;;;;;;;;;;;;4.57;65.12;101015.47;4944415;28;4506;-80
2023/03/28 06:00:43;;;;;;;;;;;;;;;4.65;64.70;101023.47;4941863;28;4481;-81
2023/03/28 06:03:38;;;;;;;;;;;;;;;4.65;64.85;101020.78;4943998;28;4569;-81
2023/03/28 06:06:30;;;;;;;;;;;;;;;4.64;64.78;101022.59;4940905;28;3799;-81
2023/03/28 06:09:22;;;;;;;;;;;;;;;4.67;64.75;101022.25;4942820;28;4494;-79
2023/03/28 06:12:14;;;;;;;;;;;;;;;4.58;64.96;101020.59;4936912;28;4383;-82
2023/03/28 06:15:06;;;;;;;;;;;;;;;4.58;65.21;101030.44;4941030;28;4498;-82
2023/03/28 06:17:58;;;;;;;;;;;;;;;4.62;64.94;101027.28;4941330;28;4896;-80
2023/03/28 06:20:50;;;;;;;;;;;;;;;4.66;64.54;101033.13;4940896;28;4829;-82
2023/03/28 06:23:41;;;;;;;;;;;;;;;4.62;64.68;101032.63;4941574;28;4884;-82
2023/03/28 06:26:33;;;;;;;;;;;;;;;4.58;64.84;101027.78;4939578;28;4774;-82
2023/03/28 06:29:25;;;;;;;;;;;;;;;4.64;64.84;101038.59;4940864;28;4868;-82
2023/03/28 06:32:18;;;;;;;;;;;;;;;4.65;64.64;101037.63;4944078;28;4106;-82
2023/03/28 06:35:10;;;;;;;;;;;;;;;4.61;64.85;101044.28;4946792;28;4519;-81
2023/03/28 06:38:02;;;;;;;;;;;;;;;4.71;64.44;101030.78;4963291;28;4791;-82
2023/03/28 06:40:54;;;;;;;;;;;;;;;4.67;64.69;101037.44;4964105;28;4872;-81
2023/03/28 06:43:45;;;;;;;;;;;;;;;4.65;64.46;101031.47;4964577;28;4454;-81
2023/03/28 06:46:37;;;;;;;;;;;;;;;4.63;64.64;101031.63;4965794;28;3899;-81
2023/03/28 06:49:29;;;;;;;;;;;;;;;4.64;64.55;101038.59;4965855;28;4648;-79
2023/03/28 06:52:22;;;;;;;;;;;;;;;4.70;64.39;101045.09;4966379;28;5027;-81
2023/03/28 06:55:14;;;;;;;;;;;;;;;4.69;64.55;101036.28;4965218;28;4152;-81
2023/03/28 06:58:06;;;;;;;;;;;;;;;4.68;64.46;101042.63;4969664;28;4782;-84
2023/03/28 07:00:58;;;;;;;;;;;;;;;4.63;64.81;101036.13;4972137;28;4933;-82
2023/03/28 07:03:50;;;;;;;;;;;;;;;4.69;64.39;101041.63;4973347;28;4763;-82
2023/03/28 07:06:42;;;;;;;;;;;;;;;4.69;64.63;101043.44;4963554;28;5150;-82
2023/03/28 07:09:34;;;;;;;;;;;;;;;4.70;64.31;101045.94;4967642;28;4029;-82
2023/03/28 07:12:26;;;;;;;;;;;;;;;4.65;64.50;101044.81;4960930;28;3889;-83
2023/03/28 07:15:18;;;;;;;;;;;;;;;4.63;64.96;101052.13;4960251;28;4487;-81
2023/03/28 07:18:10;;;;;;;;;;;;;;;4.67;64.49;101045.44;4966666;28;4323;-83
2023/03/28 07:21:02;;;;;;;;;;;;;;;4.63;64.53;101047.63;4972632;28;4941;-83
2023/03/28 07:23:54;;;;;;;;;;;;;;;4.64;64.77;101048.44;4963105;28;4782;-82
2023/03/28 07:26:46;;;;;;;;;;;;;;;4.69;64.53;101054.13;4962878;28;3953;-84
2023/03/28 07:29:38;;;;;;;;;;;;;;;4.68;64.60;101052.47;4967678;28;4096;-85
2023/03/28 07:32:30;;;;;;;;;;;;;;;4.58;64.89;101052.63;4966515;28;4675;-84
2023/03/28 07:35:22;;;;;;;;;;;;;;;4.69;64.69;101056.78;4966538;28;4388;-85
2023/03/28 07:38:14;;;;;;;;;;;;;;;4.66;64.70;101046.47;4966667;28;4557;-84
2023/03/28 07:41:06;;;;;;;;;;;;;;;4.73;64.30;101050.09;4964674;28;4843;-84
2023/03/28 07:43:57;;;;;;;;;;;;;;;4.73;64.38;101050.94;4964233;28;4931;-85
2023/03/28 07:46:50;;;;;;;;;;;;;;;4.81;64.20;101059.94;4974778;28;4723;-85
2023/03/28 07:49:42;;;;;;;;;;;;;;;4.76;64.45;101060.44;4971098;28;4615;-83
2023/03/28 07:52:34;;;;;;;;;;;;;;;4.69;65.03;101062.97;4965051;28;4681;-81
2023/03/28 07:55:25;;;;;;;;;;;;;;;4.67;64.59;101064.94;4967624;28;4502;-83
2023/03/28 07:58:17;;;;;;;;;;;;;;;4.68;64.61;101055.97;4961137;28;4616;-82
2023/03/28 08:01:09;;;;;;;;;;;;;;;4.76;64.53;101060.44;4966246;28;3943;-83
2023/03/28 08:04:00;;;;;;;;;;;;;;;4.79;64.53;101062.75;4974388;28;4728;-83
2023/03/28 08:06:52;;;;;;;;;;;;;;;4.80;64.45;101063.63;4973624;28;4807;-83
2023/03/28 08:09:44;;;;;;;;;;;;;;;4.78;64.15;101064.59;4975222;28;4055;-82
2023/03/28 08:12:37;;;;;;;;;;;;;;;4.72;64.71;101065.28;4974037;28;4559;-81
2023/03/28 08:15:29;;;;;;;;;;;;;;;4.79;64.49;101060.09;4970214;28;5356;-82
2023/03/28 08:18:20;;;;;;;;;;;;;;;4.79;64.55;101062.75;4970922;28;5066;-81
2023/03/28 08:21:14;;;;;;;;;;;;;;;4.85;64.80;101059.41;4968496;28;5041;-81
2023/03/28 08:24:06;;;;;;;;;;;;;;;4.85;64.45;101059.41;4967139;28;4907;-83
2023/03/28 08:26:58;;;;;;;;;;;;;;;4.81;64.68;101062.63;4962580;28;5092;-83
2023/03/28 08:29:50;;;;;;;;;;;;;;;4.84;64.55;101060.44;4957076;28;4733;-83
2023/03/28 08:32:42;;;;;;;;;;;;;;;4.86;64.50;101060.28;4955727;28;4930;-83
2023/03/28 08:35:34;;;;;;;;;;;;;;;4.96;64.32;101066.25;4961358;28;4083;-82
2023/03/28 08:38:26;;;;;;;;;;;;;;;4.89;64.56;101059.94;4984678;28;4074;-81
2023/03/28 08:41:18;;;;;;;;;;;;;;;4.97;64.21;101059.88;4986946;28;4731;-83
2023/03/28 08:44:10;;;;;;;;;;;;;;;4.89;64.34;101051.94;4979601;28;4323;-81
2023/03/28 08:47:02;;;;;;;;;;;;;;;4.94;64.37;101042.41;4986129;28;5226;-80
2023/03/28 08:49:56;;;;;;;;;;;;;;;4.89;64.45;101044.75;4975930;28;5003;-81
2023/03/28 08:52:48;;;;;;;;;;;;;;;4.90;64.77;101048.25;4972013;28;4945;-81
2023/03/28 08:55:40;;;;;;;;;;;;;;;4.93;64.66;101043.38;4978669;28;4917;-80
2023/03/28 08:58:33;;;;;;;;;;;;;;;5.00;64.58;101043.56;4977770;28;5678;-80
2023/03/28 09:01:25;;;;;;;;;;;;;;;5.01;64.43;101040.69;4978658;28;4936;-79
2023/03/28 09:04:19;;;;;;;;;;;;;;;5.01;64.55;101047.88;4990943;28;5036;-79
2023/03/28 09:07:11;;;;;;;;;;;;;;;5.03;64.59;101043.22;4986138;28;4881;-79
2023/03/28 09:10:03;;;;;;;;;;;;;;;5.02;64.47;101041.53;4988845;28;5131;-81
2023/03/28 09:12:55;;;;;;;;;;;;;;;5.07;64.60;101041.03;4987286;28;5017;-79
2023/03/28 09:15:47;;;;;;;;;;;;;;;5.10;64.63;101036.19;4986656;28;4889;-79
2023/03/28 09:18:39;;;;;;;;;;;;;;;5.13;64.43;101033.16;4988209;28;4944;-80
2023/03/28 09:21:31;;;;;;;;;;;;;;;5.14;64.47;101028.66;4985633;28;4736;-78
2023/03/28 09:24:23;;;;;;;;;;;;;;;5.16;64.37;101026.66;4985240;28;4952;-78
2023/03/28 09:27:15;;;;;;;;;;;;;;;5.15;64.52;101022.31;4983331;28;5064;-78
2023/03/28 09:30:08;;;;;;;;;;;;;;;5.16;64.56;101022.13;4987379;28;5043;-79
2023/03/28 09:32:59;;;;;;;;;;;;;;;5.19;64.78;101020.97;4988171;28;5695;-79
2023/03/28 09:35:51;;;;;;;;;;;;;;;5.21;64.58;101014.44;4987765;28;5955;-78
2023/03/28 09:38:43;;;;;;;;;;;;;;;5.21;64.55;101018.97;4989336;28;5047;-78
2023/03/28 09:41:35;;;;;;;;;;;;;;;5.24;64.43;101013.25;4989526;28;5060;-79
2023/03/28 09:44:27;;;;;;;;;;;;;;;5.28;64.55;101013.75;4984800;28;5060;-79
2023/03/28 09:47:18;;;;;;;;;;;;;;;5.20;64.94;101009.25;4977840;28;4941;-78
2023/03/28 09:50:10;;;;;;;;;;;;;;;5.27;64.75;101006.75;4985477;28;5763;-80
2023/03/28 09:53:02;;;;;;;;;;;;;;;5.30;64.57;101006.41;4984785;28;4923;-81
2023/03/28 09:55:54;;;;;;;;;;;;;;;5.31;64.76;100995.53;4980601;28;4862;-76
2023/03/28 09:58:46;;;;;;;;;;;;;;;5.36;64.68;100992.34;4971182;28;4668;-81
2023/03/28 10:01:38;;;;;;;;;;;;;;;5.40;64.66;101001.66;4972488;28;4843;-83
2023/03/28 10:04:31;;;;;;;;;;;;;;;5.42;64.66;100999.66;4971083;28;5113;-84
2023/03/28 10:07:22;;;;;;;;;;;;;;;5.54;64.52;100997.41;4971418;28;4785;-82
2023/03/28 10:10:14;;;;;;;;;;;;;;;5.45;64.67;101001.97;4976498;28;5088;-80
2023/03/28 10:13:06;;;;;;;;;;;;;;;5.51;64.79;100992.44;4989091;28;4948;-80
2023/03/28 10:15:58;;;;;;;;;;;;;;;5.54;64.71;100997.41;4994813;28;5028;-81
2023/03/28 10:18:50;;;;;;;;;;;;;;;5.55;64.71;100991.88;4995365;28;4615;-80
2023/03/28 10:21:42;;;;;;;;;;;;;;;5.55;64.89;100991.06;4993986;28;5061;-80
2023/03/28 10:24:34;;;;;;;;;;;;;;;5.68;64.58;100996.66;4995405;28;5119;-81
2023/03/28 10:27:26;;;;;;;;;;;;;;;5.61;64.80;100987.69;4991869;28;5040;-79
2023/03/28 10:30:18;;;;;;;;;;;;;;;5.65;64.84;100981.00;4994561;28;5048;-80
2023/03/28 10:33:10;;;;;;;;;;;;;;;5.65;64.62;100983.66;4994672;28;5039;-80
2023/03/28 10:36:02;;;;;;;;;;;;;;;5.62;64.83;100982.19;4988572;28;4266;-79
2023/03/28 10:38:54;;;;;;;;;;;;;;;5.64;64.95;100981.97;4979402;28;4176;-80
2023/03/28 10:41:46;;;;;;;;;;;;;;;5.71;64.95;100972.25;4980900;28;4413;-80
2023/03/28 10:44:39;;;;;;;;;;;;;;;5.72;64.92;100968.56;4980905;28;4890;-81
2023/03/28 10:47:31;;;;;;;;;;;;;;;5.78;64.64;100967.03;4987881;28;4109;-79
2023/03/28 10:50:23;;;;;;;;;;;;;;;5.77;64.77;100963.53;4980525;28;4809;-79
2023/03/28 10:53:15;;;;;;;;;;;;;;;5.80;64.87;100959.69;4982907;28;4752;-79
2023/03/28 10:56:07;;;;;;;;;;;;;;;5.82;64.63;100961.13;4986219;28;4523;-79
2023/03/28 10:58:59;;;;;;;;;;;;;;;5.86;64.60;100958.97;4991899;28;4674;-80
2023/03/28 11:01:51;;;;;;;;;;;;;;;5.82;64.78;100953.13;4991719;28;4642;-79
2023/03/28 11:04:43;;;;;;;;;;;;;;;5.87;64.70;100960.59;4996158;28;5059;-79
2023/03/28 11:07:35;;;;;;;;;;;;;;;5.86;65.04;100950.94;4987948;28;4311;-79
2023/03/28 11:10:27;;;;;;;;;;;;;;;5.94;64.64;100950.88;4993678;28;4228;-80
2023/03/28 11:13:19;;;;;;;;;;;;;;;5.91;64.94;100949.41;4995181;28;2386;-79
2023/03/28 11:16:11;;;;;;;;;;;;;;;5.71;49.77;100945.53;4993319;28;4197;-76
2023/03/28 11:19:03;;;;;;;;;;;;;;;5.09;45.05;100943.75;4992613;28;4813;-85
2023/03/28 11:21:55;;;;;;;;;;;;;;;5.79;54.47;100944.63;4993377;28;5038;-86
2023/03/28 11:24:47;;;;;;;;;;;;;;;5.87;56.16;100944.56;4992431;28;4978;-83
2023/03/28 11:27:38;;;;;;;;;;;;;;;5.87;57.81;100949.91;4989509;28;4527;-83
2023/03/28 11:30:30;;;;;;;;;;;;;;;5.87;58.97;100939.22;4992625;28;4587;-84
2023/03/28 11:33:22;;;;;;;;;;;;;;;5.92;59.52;100944.88;4988246;28;5073;-82
2023/03/28 11:36:14;;;;;;;;;;;;;;;6.01;60.16;100940.31;4990319;28;4944;-83
2023/03/28 11:39:06;;;;;;;;;;;;;;;5.97;60.70;100949.69;4992461;28;4826;-82
2023/03/28 11:42:00;;;;;;;;;;;;;;;6.01;60.69;100935.81;4993086;28;5186;-82
2023/03/28 11:44:53;;;;;;;;;;;;;;;6.05;61.13;100950.47;4992069;28;5112;-80
2023/03/28 11:47:45;;;;;;;;;;;;;;;6.00;61.59;100944.00;4993200;28;4869;-82
2023/03/28 11:50:37;;;;;;;;;;;;;;;6.01;62.12;100943.81;4992541;28;4945;-82
2023/03/28 11:53:29;;;;;;;;;;;;;;;6.07;62.19;100944.94;4991122;28;4534;-81
2023/03/28 11:56:22;;;;;;;;;;;;;;;6.10;62.18;100948.09;4993523;28;4853;-82
2023/03/28 11:59:16;;;;;;;;;;;;;;;6.06;62.67;100943.25;4995004;28;4935;-81
2023/03/28 12:02:08;;;;;;;;;;;;;;;6.14;62.77;100930.66;4992177;28;4762;-81
2023/03/28 12:05:00;;;;;;;;;;;;;;;6.16;62.71;100935.00;4986431;28;4444;-81
2023/03/28 12:07:52;;;;;;;;;;;;;;;6.14;63.01;100933.31;4988859;28;4879;-83
2023/03/28 12:10:44;;;;;;;;;;;;;;;6.12;63.35;100932.69;4982853;28;4962;-82
2023/03/28 12:13:37;;;;;;;;;;;;;;;6.16;63.25;100933.16;4982862;28;4773;-82
2023/03/28 12:16:29;;;;;;;;;;;;;;;6.21;63.33;100927.28;4985417;28;3928;-82
2023/03/28 12:19:21;;;;;;;;;;;;;;;6.20;63.54;100926.41;4990408;28;4705;-82
2023/03/28 12:22:13;;;;;;;;;;;;;;;6.15;63.82;100915.47;4974629;28;4643;-83
2023/03/28 12:25:05;;;;;;;;;;;;;;;6.20;63.78;100915.72;4980607;28;4385;-82
2023/03/28 12:27:57;;;;;;;;;;;;;;;6.23;64.07;100910.00;4977659;28;4651;-83
2023/03/28 12:30:49;;;;;;;;;;;;;;;6.21;64.18;100920.09;4982279;28;4833;-84
2023/03/28 12:33:42;;;;;;;;;;;;;;;6.24;64.31;100909.00;4987240;28;4811;-83
2023/03/28 12:36:34;;;;;;;;;;;;;;;6.28;64.08;100907.63;4986019;28;4863;-83
2023/03/28 12:39:33;;;;;;;;;;;;;;;6.31;64.28;100904.59;4988378;28;4901;-82
2023/03/28 12:42:25;;;;;;;;;;;;;;;6.29;64.40;100901.25;4987414;28;4904;-83
2023/03/28 12:45:17;;;;;;;;;;;;;;;6.28;64.66;100901.44;4986196;28;5079;-84
2023/03/28 12:48:09;;;;;;;;;;;;;;;6.31;64.47;100907.25;4987730;28;4876;-85
2023/03/28 12:51:01;;;;;;;;;;;;;;;6.39;64.43;100906.34;4988064;28;5061;-84
2023/03/28 12:53:53;;;;;;;;;;;;;;;6.44;64.31;100903.97;4987738;28;4890;-82
2023/03/28 12:56:45;;;;;;;;;;;;;;;6.44;64.13;100901.28;4986873;28;4888;-83
2023/03/28 12:59:36;;;;;;;;;;;;;;;6.45;64.28;100902.94;4974579;28;4723;-84
2023/03/28 13:02:28;;;;;;;;;;;;;;;6.44;64.47;100912.00;4977767;28;4708;-82
2023/03/28 13:05:20;;;;;;;;;;;;;;;6.44;64.14;100903.09;4983041;28;4886;-84
2023/03/28 13:08:12;;;;;;;;;;;;;;;6.49;64.15;100908.75;4989443;28;4961;-83
2023/03/28 13:11:04;;;;;;;;;;;;;;;6.40;64.49;100905.31;4988367;28;5075;-85
2023/03/28 13:13:57;;;;;;;;;;;;;;;6.42;64.50;100908.66;4984131;28;4729;-83
2023/03/28 13:16:48;;;;;;;;;;;;;;;6.46;64.29;100901.09;4983397;28;4941;-85
2023/03/28 13:19:40;;;;;;;;;;;;;;;6.50;64.38;100902.38;4986966;28;4758;-84
2023/03/28 13:22:32;;;;;;;;;;;;;;;6.50;64.63;100894.34;4985803;28;4744;-83
2023/03/28 13:25:26;;;;;;;;;;;;;;;6.49;64.71;100890.84;4977490;28;4773;-84
2023/03/28 13:28:17;;;;;;;;;;;;;;;6.48;64.86;100891.88;4988362;28;4800;-84
2023/03/28 13:31:10;;;;;;;;;;;;;;;6.45;64.96;100889.56;4992446;28;4981;-83
2023/03/28 13:34:01;;;;;;;;;;;;;;;6.53;64.97;100884.13;4992373;28;3908;-84
2023/03/28 13:36:53;;;;;;;;;;;;;;;6.52;64.79;100887.78;4985186;28;4717;-84
2023/03/28 13:39:45;;;;;;;;;;;;;;;6.51;65.16;100875.44;4992001;28;4807;-85
2023/03/28 13:42:37;;;;;;;;;;;;;;;6.54;64.91;100879.59;4990328;28;3984;-86
2023/03/28 13:45:30;;;;;;;;;;;;;;;6.54;65.36;100876.91;4988626;28;4522;-84
2023/03/28 13:48:21;;;;;;;;;;;;;;;6.56;64.94;100874.91;4987026;28;4764;-84
2023/03/28 13:51:13;;;;;;;;;;;;;;;6.58;65.23;100872.84;4989398;28;4821;-86
2023/03/28 13:54:05;;;;;;;;;;;;;;;6.60;64.94;100873.50;4986065;28;5010;-84
2023/03/28 13:56:57;;;;;;;;;;;;;;;6.58;65.29;100870.16;4991006;28;4903;-84
2023/03/28 13:59:49;;;;;;;;;;;;;;;6.58;65.56;100867.50;4992635;28;4850;-86
2023/03/28 14:02:40;;;;;;;;;;;;;;;6.58;65.65;100857.63;4993726;28;4953;-85
2023/03/28 14:05:32;;;;;;;;;;;;;;;6.58;65.66;100854.09;4992944;28;5120;-86
2023/03/28 14:08:25;;;;;;;;;;;;;;;6.66;65.43;100851.34;4991466;28;4895;-88
2023/03/28 14:11:17;;;;;;;;;;;;;;;6.62;65.91;100852.75;4988021;28;4579;-83
2023/03/28 14:14:09;;;;;;;;;;;;;;;6.71;65.70;100850.78;4989859;28;4725;-85
2023/03/28 14:17:01;;;;;;;;;;;;;;;6.70;65.78;100846.44;4991204;28;4981;-82
2023/03/28 14:19:53;;;;;;;;;;;;;;;6.69;65.62;100839.44;4989562;28;4753;-84
2023/03/28 14:22:45;;;;;;;;;;;;;;;6.69;65.67;100836.75;4987668;28;4536;-84